Skip Navigation LinksHome page > Weather > Current weather Skip Navigation Links

Current Weather

Indira Gandhi Intl Apt, New Delhi, India

For information only: do not use for flight planning or navigation.
Latest weather
Observation time Friday, October 20, 2017 10:00 AM IST
Local time Friday, October 20, 2017 10:31 AM IST
Flight conditions Low Instrument Meteorological Conditions
Winds
Wind speed calm
Visibility 0.5 mi.
Present weather smoke
Sky condition
Ceiling unlimited
Temperature 86°F
Dewpoint 64°F
Altimeter 29.85 in.Hg
Derived measurements
Relative humidity 49%
Heat index 88°F
Density altitude 2841 ft.
Remarks
No significant changes expected in the next two hours.
METAR VIDP 200430Z 00000KT 0800 R28/1400 R29/1300 FU NSC 30/18 Q1011 NOSIG

Settings

Location code

InnerDrive.Weather 4.0.6144.1 Release CLR 4.0.30319.36366
Copyright ©2015 Inner Drive Technology. All rights reserved. Portions Copyright ©1986-2015 David Braverman.

Find weather

Site navigation


Skip Navigation Links

Place info

Page info

PayPal - The safer, easier way to pay online!

Return home.

Copyright ©2017 Inner Drive Technology. Purveyors of fine, hand-crafted computer software. Page printed 2017-10-20T05:01:59 UTC.